createdAt,value
2022-11-06T00:04:17.552Z,1.90
2022-11-06T00:09:22.920Z,1.80
2022-11-06T00:14:28.611Z,1.90
2022-11-06T00:19:33.494Z,1.80
2022-11-06T00:24:38.703Z,1.40
2022-11-06T00:29:43.844Z,1.50
2022-11-06T00:34:49.421Z,1.60
2022-11-06T00:39:54.315Z,1.60
2022-11-06T00:45:00.398Z,1.70
2022-11-06T00:50:05.796Z,1.40
2022-11-06T00:55:11.878Z,1.10
2022-11-06T01:00:19.200Z,0.90
2022-11-06T01:05:25.826Z,1.20
2022-11-06T01:10:31.164Z,1.40
2022-11-06T01:15:37.612Z,1.40
2022-11-06T01:20:42.499Z,1.30
2022-11-06T01:25:58.898Z,1.40
2022-11-06T01:31:07.126Z,1.30
2022-11-06T01:36:13.994Z,1.40
2022-11-06T01:41:28.323Z,1.50
2022-11-06T01:46:36.548Z,1.20
2022-11-06T01:51:56.922Z,1.00
2022-11-06T01:57:04.569Z,0.90
2022-11-06T02:02:09.789Z,0.60
2022-11-06T02:07:15.386Z,0.90
2022-11-06T02:12:29.138Z,1.00
2022-11-06T02:18:03.698Z,1.10
2022-11-06T02:23:21.136Z,1.10
2022-11-06T02:28:35.988Z,1.10
2022-11-06T02:33:43.969Z,1.10
2022-11-06T02:38:51.963Z,1.30
2022-11-06T02:43:59.340Z,1.20
2022-11-06T02:49:07.944Z,1.00
2022-11-06T02:54:15.395Z,0.90
2022-11-06T02:59:26.380Z,0.70
2022-11-06T03:04:40.828Z,0.70
2022-11-06T03:09:46.872Z,0.80
2022-11-06T03:15:11.425Z,0.80
2022-11-06T03:20:23.554Z,0.90
2022-11-06T03:25:32.014Z,1.00
2022-11-06T03:30:40.090Z,0.80
2022-11-06T03:35:53.955Z,0.90
2022-11-06T03:41:08.592Z,0.40
2022-11-06T03:46:17.380Z,0.40
2022-11-06T03:51:29.350Z,0.60
2022-11-06T03:56:40.406Z,0.50
2022-11-06T04:01:47.365Z,0.70
2022-11-06T04:07:01.926Z,0.80
2022-11-06T04:12:27.395Z,0.80
2022-11-06T04:17:33.375Z,0.80
2022-11-06T04:22:47.719Z,0.60
2022-11-06T04:28:21.862Z,0.80
2022-11-06T04:34:03.068Z,0.60
2022-11-06T04:39:17.409Z,0.60
2022-11-06T04:44:34.642Z,0.70
2022-11-06T04:49:43.370Z,0.70
2022-11-06T04:54:49.538Z,0.70
2022-11-06T04:59:54.476Z,0.70
2022-11-06T05:04:59.369Z,0.50
2022-11-06T05:10:05.353Z,0.50
2022-11-06T05:15:10.816Z,0.60
2022-11-06T05:20:15.953Z,0.50
2022-11-06T05:25:21.515Z,0.60
2022-11-06T05:30:27.603Z,0.40
2022-11-06T05:35:34.653Z,0.30
2022-11-06T05:40:40.481Z,0.50
2022-11-06T05:45:45.579Z,0.40
2022-11-06T05:50:50.768Z,0.40
2022-11-06T05:55:55.627Z,0.50
2022-11-06T06:01:00.659Z,0.60
2022-11-06T06:06:05.821Z,0.50
2022-11-06T06:11:10.974Z,0.50
2022-11-06T06:16:16.561Z,0.60
2022-11-06T06:21:22.262Z,0.50
2022-11-06T06:26:27.517Z,0.40
2022-11-06T06:31:32.432Z,0.60
2022-11-06T06:36:38.612Z,0.60
2022-11-06T06:41:43.937Z,0.80
2022-11-06T06:46:48.990Z,0.70
2022-11-06T06:51:55.240Z,0.60
2022-11-06T06:57:00.197Z,0.50
2022-11-06T07:02:05.658Z,0.60
2022-11-06T07:07:10.553Z,0.80
2022-11-06T07:12:15.453Z,0.90
2022-11-06T07:17:21.467Z,1.00
2022-11-06T07:22:36.689Z,1.10
2022-11-06T07:27:37.089Z,1.80
2022-11-06T07:32:42.146Z,2.10
2022-11-06T07:37:47.450Z,2.20
2022-11-06T07:42:52.777Z,2.70
2022-11-06T07:48:10.428Z,3.10
2022-11-06T07:53:05.310Z,3.20
2022-11-06T07:58:10.997Z,3.50
2022-11-06T08:03:16.763Z,3.70
2022-11-06T08:08:21.775Z,4.10
2022-11-06T08:13:26.851Z,4.70
2022-11-06T08:18:31.830Z,4.60
2022-11-06T08:23:37.942Z,5.00
2022-11-06T08:28:44.009Z,5.40
2022-11-06T08:33:48.856Z,5.90
2022-11-06T08:38:54.494Z,6.10
2022-11-06T08:43:59.587Z,6.40
2022-11-06T08:49:05.113Z,6.60
2022-11-06T08:54:12.280Z,6.90
2022-11-06T08:59:17.428Z,6.70
2022-11-06T09:04:22.948Z,7.50
2022-11-06T09:09:29.869Z,7.90
2022-11-06T09:14:35.947Z,8.30
2022-11-06T09:19:40.852Z,8.40
2022-11-06T09:25:02.653Z,8.00
2022-11-06T09:29:52.103Z,8.00
2022-11-06T09:34:57.945Z,8.90
2022-11-06T09:40:06.495Z,8.80
2022-11-06T09:45:20.723Z,9.70
2022-11-06T09:50:28.794Z,10.00
2022-11-06T09:55:36.675Z,10.40
2022-11-06T10:00:42.638Z,10.60
2022-11-06T10:05:47.947Z,10.00
2022-11-06T10:11:02.832Z,10.30
2022-11-06T10:16:11.441Z,10.60
2022-11-06T10:21:43.662Z,11.00
2022-11-06T10:26:55.712Z,11.20
2022-11-06T10:32:21.672Z,11.40
2022-11-06T10:37:32.660Z,11.70
2022-11-06T10:42:40.251Z,11.70
2022-11-06T10:47:48.869Z,11.50
2022-11-06T10:53:12.021Z,11.50
2022-11-06T10:58:25.983Z,12.10
2022-11-06T11:03:39.731Z,12.10
2022-11-06T11:08:49.475Z,12.30
2022-11-06T11:14:03.398Z,12.50
2022-11-06T11:19:38.087Z,12.40
2022-11-06T11:25:01.900Z,12.30
2022-11-06T11:30:07.607Z,12.20
2022-11-06T11:35:15.318Z,12.00
2022-11-06T11:40:36.742Z,12.10
2022-11-06T11:45:42.676Z,12.20
2022-11-06T11:50:48.063Z,12.00
2022-11-06T11:55:53.968Z,12.20
2022-11-06T12:01:05.561Z,12.20
2022-11-06T12:06:14.317Z,12.00
2022-11-06T12:11:26.189Z,12.10
2022-11-06T12:16:31.408Z,12.10
2022-11-06T12:21:38.827Z,12.10
2022-11-06T12:26:52.878Z,11.80
2022-11-06T12:32:22.067Z,12.00
2022-11-06T12:37:45.653Z,11.70
2022-11-06T12:43:02.241Z,11.70
2022-11-06T12:48:10.396Z,11.70
2022-11-06T12:53:27.008Z,11.60
2022-11-06T12:58:51.109Z,11.80
2022-11-06T13:04:08.773Z,11.70
2022-11-06T13:09:17.203Z,11.70
2022-11-06T13:14:25.868Z,11.90
2022-11-06T13:19:45.917Z,12.00
2022-11-06T13:24:57.139Z,12.00
2022-11-06T13:30:08.016Z,12.00
2022-11-06T13:35:19.054Z,11.90
2022-11-06T13:40:33.466Z,11.80
2022-11-06T13:45:50.907Z,11.60
2022-11-06T13:51:01.758Z,11.50
2022-11-06T13:56:13.096Z,11.50
2022-11-06T14:01:39.258Z,11.30
2022-11-06T14:06:45.928Z,11.10
2022-11-06T14:11:57.025Z,10.60
2022-11-06T14:17:11.678Z,10.50
2022-11-06T14:22:28.607Z,10.20
2022-11-06T14:27:39.533Z,9.90
2022-11-06T14:32:47.877Z,9.60
2022-11-06T14:37:53.031Z,9.50
2022-11-06T14:43:00.033Z,9.40
2022-11-06T14:48:05.771Z,9.40
2022-11-06T14:53:27.964Z,8.90
2022-11-06T14:58:45.278Z,8.90
2022-11-06T15:03:54.250Z,8.80
2022-11-06T15:09:08.830Z,8.20
2022-11-06T15:14:17.379Z,8.20
2022-11-06T15:19:28.533Z,8.10
2022-11-06T15:24:45.331Z,8.00
2022-11-06T15:29:56.798Z,7.80
2022-11-06T15:35:08.293Z,7.60
2022-11-06T15:40:25.968Z,7.50
2022-11-06T15:45:31.754Z,6.90
2022-11-06T15:50:38.341Z,7.00
2022-11-06T15:56:03.664Z,6.80
2022-11-06T16:01:10.799Z,7.00
2022-11-06T16:06:15.917Z,6.80
2022-11-06T16:11:22.559Z,6.70
2022-11-06T16:16:39.012Z,6.60
2022-11-06T16:21:47.511Z,6.50
2022-11-06T16:26:53.845Z,6.20
2022-11-06T16:32:04.263Z,6.00
2022-11-06T16:37:22.734Z,6.00
2022-11-06T16:42:36.525Z,6.00
2022-11-06T16:47:42.084Z,5.50
2022-11-06T16:52:50.369Z,5.40
2022-11-06T16:57:59.298Z,5.00
2022-11-06T17:03:10.648Z,4.40
2022-11-06T17:08:34.106Z,4.40
2022-11-06T17:13:41.667Z,4.30
2022-11-06T17:18:48.255Z,4.40
2022-11-06T17:24:07.673Z,4.40
2022-11-06T17:29:02.607Z,4.40
2022-11-06T17:34:07.740Z,4.10
2022-11-06T17:39:13.232Z,3.80
2022-11-06T17:44:19.346Z,3.90
2022-11-06T17:49:24.779Z,3.50
2022-11-06T17:54:32.825Z,3.60
2022-11-06T17:59:38.288Z,3.40
2022-11-06T18:04:44.002Z,3.30
2022-11-06T18:09:48.958Z,2.90
2022-11-06T18:14:56.043Z,3.10
2022-11-06T18:20:00.932Z,3.20
2022-11-06T18:25:06.622Z,2.90
2022-11-06T18:30:12.816Z,2.90
2022-11-06T18:35:18.636Z,3.20
2022-11-06T18:40:23.527Z,3.30
2022-11-06T18:45:29.151Z,3.00
2022-11-06T18:50:36.684Z,2.60
2022-11-06T18:55:46.246Z,2.60
2022-11-06T19:00:51.263Z,2.80
2022-11-06T19:05:57.369Z,2.60
2022-11-06T19:11:04.831Z,2.70
2022-11-06T19:16:12.267Z,2.80
2022-11-06T19:21:17.747Z,2.30
2022-11-06T19:26:31.186Z,2.30
2022-11-06T19:31:30.715Z,2.40
2022-11-06T19:36:36.543Z,2.40
2022-11-06T19:41:41.950Z,2.40
2022-11-06T19:46:46.870Z,2.30
2022-11-06T19:51:51.955Z,2.20
2022-11-06T19:57:28.941Z,2.40
2022-11-06T20:02:03.991Z,2.50
2022-11-06T20:07:10.873Z,2.40
2022-11-06T20:12:16.143Z,2.30
2022-11-06T20:17:21.810Z,2.30
2022-11-06T20:22:27.741Z,2.20
2022-11-06T20:27:33.838Z,1.90
2022-11-06T20:32:39.911Z,2.20
2022-11-06T20:37:46.970Z,2.30
2022-11-06T20:42:52.910Z,2.00
2022-11-06T20:47:57.799Z,2.30
2022-11-06T20:53:03.024Z,2.20
2022-11-06T20:58:08.010Z,2.10
2022-11-06T21:03:14.896Z,2.10
2022-11-06T21:08:20.459Z,2.00
2022-11-06T21:13:25.970Z,1.90
2022-11-06T21:18:32.219Z,2.00
2022-11-06T21:23:38.254Z,2.20
2022-11-06T21:28:44.413Z,2.20
2022-11-06T21:33:51.265Z,2.00
2022-11-06T21:39:00.374Z,2.10
2022-11-06T21:44:06.779Z,2.50
2022-11-06T21:49:13.189Z,2.20
2022-11-06T21:54:36.037Z,2.30
2022-11-06T21:59:41.976Z,2.40
2022-11-06T22:04:47.926Z,2.40
2022-11-06T22:09:53.489Z,2.20
2022-11-06T22:14:59.492Z,2.40
2022-11-06T22:20:04.575Z,2.00
2022-11-06T22:25:10.054Z,2.10
2022-11-06T22:30:15.012Z,2.40
2022-11-06T22:35:19.903Z,2.20
2022-11-06T22:40:25.530Z,1.90
2022-11-06T22:45:33.172Z,2.20
2022-11-06T22:50:39.624Z,2.30
2022-11-06T22:55:44.914Z,2.10
2022-11-06T23:00:54.075Z,1.80
2022-11-06T23:06:02.100Z,2.10
2022-11-06T23:11:11.907Z,2.00
2022-11-06T23:16:40.897Z,2.10
2022-11-06T23:21:46.438Z,1.90
2022-11-06T23:26:52.071Z,2.00
2022-11-06T23:31:56.947Z,2.00
2022-11-06T23:37:02.005Z,1.30
2022-11-06T23:42:07.503Z,1.80
2022-11-06T23:47:12.821Z,1.90
2022-11-06T23:52:18.084Z,1.80
2022-11-06T23:57:24.438Z,1.90
